Time;durP1;ratioP1;P1;durP2;ratioP2;P2;SDS_P1;SDS_P2;PMS_P1;PMS_P2;Temp;Humidity;BMP_temperature;BMP_pressure;BME280_temperature;BME280_humidity;BME280_pressure;Samples;Min_cycle;Max_cycle;Signal;HPM_P1;HPM_P2
2022/01/09 00:06:10;;;;;;;3.63;3.07;;;5.70;91.60;;;;;;20835090;28;20212;-70
2022/01/09 00:16:11;;;;;;;6.27;3.13;;;5.70;91.40;;;;;;20836700;28;20288;-66
2022/01/09 00:26:13;;;;;;;4.77;3.10;;;5.70;91.80;;;;;;20848069;28;20666;-67
2022/01/09 00:36:15;;;;;;;5.33;3.23;;;5.70;92.10;;;;;;20834382;28;20235;-69
2022/01/09 00:46:17;;;;;;;5.37;3.17;;;5.70;92.40;;;;;;20829680;28;20243;-68
2022/01/09 00:56:19;;;;;;;8.20;3.40;;;5.80;92.90;;;;;;20832913;28;20693;-65
2022/01/09 01:06:20;;;;;;;4.40;2.97;;;5.70;93.20;;;;;;20832167;28;20230;-65
2022/01/09 01:16:22;;;;;;;3.67;2.80;;;5.80;93.40;;;;;;20831652;28;20592;-68
2022/01/09 01:26:24;;;;;;;4.67;2.93;;;5.80;93.50;;;;;;20830836;28;20258;-69
2022/01/09 01:36:25;;;;;;;4.27;2.40;;;5.80;94.00;;;;;;20829680;28;20237;-68
2022/01/09 01:46:27;;;;;;;3.37;2.33;;;5.90;94.10;;;;;;20829577;28;20207;-68
2022/01/09 01:56:29;;;;;;;3.33;2.43;;;5.90;94.30;;;;;;20829546;28;20237;-68
2022/01/09 02:06:32;;;;;;;3.57;2.27;;;5.90;94.80;;;;;;20845267;28;20237;-68
2022/01/09 02:16:39;;;;;;;5.80;2.20;;;6.00;94.90;;;;;;20844585;28;20282;-68
2022/01/09 02:26:43;;;;;;;2.67;2.10;;;6.00;95.30;;;;;;20844353;28;20215;-69
2022/01/09 02:36:44;;;;;;;2.20;1.70;;;6.00;95.80;;;;;;20842738;28;20245;-67
2022/01/09 02:47:02;;;;;;;3.80;1.70;;;6.20;95.70;;;;;;20840062;28;20209;-68
2022/01/09 02:57:04;;;;;;;1.43;1.33;;;6.20;96.00;;;;;;20841472;28;20693;-68
2022/01/09 03:07:06;;;;;;;1.93;1.40;;;6.20;96.10;;;;;;20841111;28;20201;-68
2022/01/09 03:17:07;;;;;;;1.60;1.10;;;6.30;96.10;;;;;;20839705;28;20299;-68
2022/01/09 03:27:10;;;;;;;1.70;1.10;;;6.30;96.30;;;;;;20839596;28;20206;-70
2022/01/09 03:37:12;;;;;;;1.37;1.10;;;6.40;96.50;;;;;;20840490;28;20242;-69
2022/01/09 03:47:17;;;;;;;1.20;1.10;;;6.40;96.50;;;;;;20837983;28;20292;-67
2022/01/09 03:57:20;;;;;;;1.43;1.10;;;6.40;96.70;;;;;;20836953;28;20776;-67
2022/01/09 04:07:21;;;;;;;1.13;0.90;;;6.40;97.00;;;;;;20836596;28;20215;-69
2022/01/09 04:17:31;;;;;;;0.73;0.73;;;6.50;97.10;;;;;;20835471;28;20234;-67
2022/01/09 04:27:34;;;;;;;0.80;0.80;;;6.60;97.40;;;;;;20833861;28;20692;-65
2022/01/09 04:37:37;;;;;;;3.83;0.80;;;6.60;97.60;;;;;;20835016;28;20243;-69
2022/01/09 04:47:42;;;;;;;0.77;0.70;;;6.70;97.80;;;;;;20831689;28;20240;-69
2022/01/09 04:57:44;;;;;;;0.60;0.60;;;6.70;98.00;;;;;;20832169;28;20296;-68
2022/01/09 05:07:45;;;;;;;0.47;0.47;;;6.80;98.10;;;;;;20832071;28;20210;-67
2022/01/09 05:17:50;;;;;;;0.50;0.50;;;6.80;98.20;;;;;;20830920;28;20241;-67
2022/01/09 05:27:52;;;;;;;0.47;0.47;;;6.70;98.20;;;;;;20830489;28;20569;-68
2022/01/09 05:37:54;;;;;;;0.50;0.50;;;6.70;98.10;;;;;;20829904;28;20238;-67
2022/01/09 05:47:56;;;;;;;0.50;0.50;;;6.60;98.20;;;;;;20829781;28;20210;-66
2022/01/09 05:57:57;;;;;;;0.60;0.60;;;6.60;98.20;;;;;;20829236;28;20246;-69
2022/01/09 06:07:59;;;;;;;0.87;0.60;;;6.60;98.50;;;;;;20823911;28;20434;-69
2022/01/09 06:18:01;;;;;;;0.50;0.40;;;6.60;97.40;;;;;;20828080;28;20242;-69
2022/01/09 06:28:03;;;;;;;0.43;0.43;;;6.30;97.30;;;;;;20828066;28;20218;-69
2022/01/09 06:38:05;;;;;;;0.60;0.60;;;6.30;97.50;;;;;;20827272;28;20279;-69
2022/01/09 06:48:07;;;;;;;1.20;0.50;;;6.30;97.40;;;;;;20834002;28;20214;-66
2022/01/09 06:58:09;;;;;;;0.80;0.50;;;6.30;97.40;;;;;;20842347;28;20236;-70
2022/01/09 07:08:11;;;;;;;1.03;0.80;;;6.30;97.50;;;;;;20841279;28;20293;-69
2022/01/09 07:18:12;;;;;;;1.27;0.80;;;6.10;97.60;;;;;;20840068;28;20754;-68
2022/01/09 07:28:14;;;;;;;1.37;0.87;;;5.80;97.70;;;;;;20837712;28;20267;-69
2022/01/09 07:38:16;;;;;;;3.10;1.13;;;5.80;97.80;;;;;;20838072;28;20237;-67
2022/01/09 07:48:21;;;;;;;2.03;1.10;;;5.80;97.90;;;;;;20837364;28;20661;-65
2022/01/09 07:58:22;;;;;;;2.57;1.30;;;5.90;97.90;;;;;;20917556;28;20270;-67
2022/01/09 08:08:24;;;;;;;2.17;1.10;;;5.80;97.70;;;;;;20918412;28;20656;-64
2022/01/09 08:18:26;;;;;;;2.93;1.30;;;5.90;97.60;;;;;;20917210;28;20236;-65
2022/01/09 08:28:27;;;;;;;2.50;1.30;;;5.80;97.80;;;;;;20915815;28;20311;-64
2022/01/09 08:38:30;;;;;;;4.33;1.20;;;5.80;97.60;;;;;;20914051;28;20293;-68
2022/01/09 08:48:31;;;;;;;2.83;1.30;;;5.80;97.70;;;;;;20830310;28;20210;-62
2022/01/09 08:58:33;;;;;;;4.43;1.50;;;5.80;98.10;;;;;;20832385;28;20279;-66
2022/01/09 09:08:35;;;;;;;5.13;1.40;;;5.90;98.30;;;;;;20841484;28;20208;-65
2022/01/09 09:18:37;;;;;;;2.67;1.53;;;5.90;98.10;;;;;;20912677;28;20591;-63
2022/01/09 09:28:39;;;;;;;3.73;1.10;;;5.90;97.30;;;;;;20849298;28;20197;-66
2022/01/09 09:38:40;;;;;;;2.33;1.23;;;5.80;97.00;;;;;;20871958;28;20267;-68
2022/01/09 09:48:45;;;;;;;4.13;1.40;;;5.70;97.40;;;;;;20910093;28;20219;-66
2022/01/09 09:58:50;;;;;;;3.63;1.70;;;5.90;97.60;;;;;;20911125;28;20239;-68
2022/01/09 10:08:51;;;;;;;4.47;1.77;;;5.90;97.60;;;;;;20911237;28;20208;-67
2022/01/09 10:18:53;;;;;;;5.93;1.90;;;5.90;98.00;;;;;;20912880;28;20774;-66
2022/01/09 10:28:55;;;;;;;5.20;1.90;;;6.00;97.90;;;;;;20925955;28;20206;-67
2022/01/09 10:39:06;;;;;;;3.43;1.70;;;6.00;97.70;;;;;;20924789;28;20298;-67
2022/01/09 10:49:12;;;;;;;4.23;1.90;;;6.10;97.70;;;;;;20884371;28;20210;-70
2022/01/09 10:59:28;;;;;;;5.50;1.87;;;6.10;97.80;;;;;;20919238;28;20637;-67
2022/01/09 11:09:32;;;;;;;6.70;2.00;;;6.10;97.80;;;;;;20921151;28;20597;-69
2022/01/09 11:19:35;;;;;;;5.00;2.00;;;6.10;97.90;;;;;;20921329;28;20235;-65
2022/01/09 11:30:10;;;;;;;9.03;2.97;;;6.30;97.50;;;;;;20858434;28;20210;-67
2022/01/09 11:40:30;;;;;;;8.13;2.50;;;6.60;97.00;;;;;;20843332;28;20601;-68
2022/01/09 11:50:31;;;;;;;6.20;2.60;;;6.60;97.20;;;;;;20920218;28;20206;-70
2022/01/09 12:00:40;;;;;;;8.93;3.30;;;6.80;96.70;;;;;;20923619;28;20292;-66
2022/01/09 12:10:50;;;;;;;25.47;14.57;;;7.00;95.70;;;;;;20902995;28;20695;-62
2022/01/09 12:20:52;;;;;;;9.43;2.40;;;7.00;95.60;;;;;;20874189;28;20237;-67
2022/01/09 12:30:59;;;;;;;9.60;3.00;;;7.10;95.50;;;;;;20835166;28;20436;-65
2022/01/09 12:41:06;;;;;;;5.37;2.23;;;7.50;94.70;;;;;;20911152;28;20819;-68
2022/01/09 12:51:12;;;;;;;7.20;2.40;;;7.20;94.60;;;;;;20912043;28;20259;-67
2022/01/09 13:01:13;;;;;;;10.60;2.43;;;7.20;93.70;;;;;;20912982;28;20641;-67
2022/01/09 13:11:18;;;;;;;6.20;1.90;;;7.10;93.30;;;;;;20897058;28;20203;-65
2022/01/09 13:21:26;;;;;;;11.77;2.20;;;7.00;93.50;;;;;;20830146;28;20697;-66
2022/01/09 13:31:40;;;;;;;8.40;2.13;;;6.90;93.10;;;;;;20830553;28;20237;-65
2022/01/09 13:41:45;;;;;;;6.37;2.13;;;6.80;93.20;;;;;;20892213;28;20294;-69
2022/01/09 13:51:49;;;;;;;6.83;2.10;;;6.90;93.40;;;;;;20911336;28;20206;-68
2022/01/09 14:01:53;;;;;;;6.57;2.10;;;7.00;93.20;;;;;;20929370;28;20238;-67
2022/01/09 14:12:15;;;;;;;7.53;1.97;;;7.00;93.30;;;;;;20865173;28;20210;-67
2022/01/09 14:22:18;;;;;;;9.20;1.97;;;7.10;93.60;;;;;;20849340;28;20282;-68
2022/01/09 14:32:20;;;;;;;13.30;6.07;;;7.10;93.00;;;;;;20844124;28;20218;-65
2022/01/09 14:42:22;;;;;;;11.07;2.27;;;7.10;92.90;;;;;;20843414;28;20648;-66
2022/01/09 14:52:26;;;;;;;5.17;1.90;;;7.10;92.90;;;;;;20843430;28;20206;-68
2022/01/09 15:02:28;;;;;;;6.57;2.40;;;7.20;92.80;;;;;;20842001;28;20242;-67
2022/01/09 15:12:29;;;;;;;8.50;2.73;;;7.20;93.10;;;;;;20841260;28;20264;-65
2022/01/09 15:22:31;;;;;;;8.50;3.00;;;7.10;93.00;;;;;;20842247;28;20313;-67
2022/01/09 15:32:33;;;;;;;6.30;2.70;;;7.10;92.90;;;;;;20840438;28;20211;-67
2022/01/09 15:42:35;;;;;;;6.53;2.20;;;6.90;93.10;;;;;;20838072;28;20252;-69
2022/01/09 15:52:36;;;;;;;9.50;2.57;;;6.90;93.40;;;;;;20838538;28;20613;-67
2022/01/09 16:02:40;;;;;;;9.83;2.37;;;6.80;93.90;;;;;;20835198;28;20292;-66
2022/01/09 16:12:48;;;;;;;5.37;2.20;;;6.70;93.80;;;;;;20833541;28;20624;-67
2022/01/09 16:22:53;;;;;;;7.53;2.33;;;6.70;94.10;;;;;;20833982;28;20596;-70
2022/01/09 16:32:55;;;;;;;5.93;2.20;;;6.60;93.80;;;;;;20834560;28;20264;-67
2022/01/09 16:42:57;;;;;;;10.03;2.57;;;6.70;93.90;;;;;;20834022;28;20251;-68
2022/01/09 16:52:58;;;;;;;7.77;3.20;;;6.70;93.90;;;;;;20838508;28;20212;-68
2022/01/09 17:03:01;;;;;;;11.00;2.87;;;6.70;94.00;;;;;;20832474;28;20582;-69
2022/01/09 17:13:03;;;;;;;9.40;3.30;;;6.70;94.20;;;;;;20831536;28;20208;-68
2022/01/09 17:23:05;;;;;;;9.50;2.90;;;6.60;94.20;;;;;;20831083;28;20241;-65
2022/01/09 17:33:07;;;;;;;7.53;2.67;;;6.70;93.90;;;;;;20829721;28;20263;-66
2022/01/09 17:43:08;;;;;;;6.50;2.40;;;6.60;93.90;;;;;;20829520;28;20307;-64
2022/01/09 17:53:11;;;;;;;4.20;2.43;;;6.70;93.90;;;;;;20829945;28;20206;-63
2022/01/09 18:03:13;;;;;;;6.43;2.20;;;6.70;93.70;;;;;;20889361;28;20232;-65
2022/01/09 18:13:15;;;;;;;6.63;3.17;;;6.70;93.60;;;;;;20904850;28;20624;-65
2022/01/09 18:23:16;;;;;;;4.77;2.53;;;6.70;93.60;;;;;;20904260;28;20748;-65
2022/01/09 18:33:18;;;;;;;5.73;2.97;;;6.70;93.60;;;;;;20910484;28;20255;-67
2022/01/09 18:43:21;;;;;;;9.27;3.67;;;6.80;93.70;;;;;;20877600;28;20248;-63
2022/01/09 18:53:25;;;;;;;13.03;5.43;;;6.90;93.90;;;;;;20925289;28;20212;-62
2022/01/09 19:03:27;;;;;;;8.80;4.20;;;6.80;93.80;;;;;;20915075;28;20259;-62
2022/01/09 19:13:29;;;;;;;8.60;3.37;;;6.80;93.90;;;;;;21004727;28;20250;-68
2022/01/09 19:23:30;;;;;;;10.03;3.77;;;6.70;93.70;;;;;;21004914;28;20240;-67
2022/01/09 19:33:32;;;;;;;10.50;4.13;;;6.80;94.30;;;;;;20973983;28;20202;-67
2022/01/09 19:43:34;;;;;;;9.03;4.43;;;6.70;94.40;;;;;;20919082;28;20708;-63
2022/01/09 19:53:36;;;;;;;9.67;4.13;;;6.60;94.70;;;;;;20919320;28;20214;-64
2022/01/09 20:03:38;;;;;;;10.90;4.30;;;6.50;94.60;;;;;;20919361;28;20232;-65
2022/01/09 20:13:40;;;;;;;9.47;4.10;;;6.50;94.80;;;;;;20910339;28;20554;-67
2022/01/09 20:23:42;;;;;;;9.87;3.80;;;6.60;95.10;;;;;;20914318;28;20290;-66
2022/01/09 20:33:44;;;;;;;7.50;3.30;;;6.40;94.50;;;;;;20914727;28;20550;-66
2022/01/09 20:43:45;;;;;;;5.60;3.00;;;6.40;94.80;;;;;;20913878;28;20253;-66
2022/01/09 20:53:47;;;;;;;4.27;2.20;;;6.40;94.80;;;;;;20914013;28;20262;-66
2022/01/09 21:03:49;;;;;;;6.30;2.20;;;6.10;94.30;;;;;;20912794;28;20285;-66
2022/01/09 21:13:51;;;;;;;5.47;2.37;;;6.10;94.60;;;;;;20912328;28;20215;-66
2022/01/09 21:23:54;;;;;;;20.77;10.23;;;5.90;94.10;;;;;;20911590;28;20287;-65
2022/01/09 21:33:55;;;;;;;7.10;3.23;;;5.80;93.90;;;;;;20910847;28;20294;-65
2022/01/09 21:43:57;;;;;;;10.10;3.30;;;4.40;93.40;;;;;;20909956;28;20271;-66
2022/01/09 21:53:59;;;;;;;7.43;3.40;;;5.70;94.20;;;;;;20909716;28;20207;-64
2022/01/09 22:04:00;;;;;;;9.63;4.20;;;5.60;94.00;;;;;;20909076;28;20232;-64
2022/01/09 22:14:03;;;;;;;9.30;5.10;;;5.50;94.00;;;;;;20862480;28;20208;-65
2022/01/09 22:24:08;;;;;;;12.33;4.37;;;5.40;94.00;;;;;;20840253;28;20232;-64
2022/01/09 22:34:12;;;;;;;8.80;4.30;;;5.40;94.00;;;;;;20840941;28;20291;-65
2022/01/09 22:44:29;;;;;;;8.90;4.40;;;5.30;94.10;;;;;;20842373;28;20236;-66
2022/01/09 22:54:31;;;;;;;12.73;4.30;;;5.40;94.50;;;;;;20842458;28;20240;-66
2022/01/09 23:04:33;;;;;;;12.67;5.30;;;5.40;94.40;;;;;;20842555;28;20232;-65
2022/01/09 23:14:35;;;;;;;9.20;3.70;;;5.40;94.50;;;;;;20840309;28;20200;-64
2022/01/09 23:24:37;;;;;;;12.03;3.60;;;5.50;94.30;;;;;;20833824;28;20439;-66
2022/01/09 23:34:38;;;;;;;9.30;3.57;;;5.50;94.50;;;;;;20837520;28;20208;-66
2022/01/09 23:44:41;;;;;;;8.23;3.60;;;5.50;94.30;;;;;;20837468;28;20236;-66
2022/01/09 23:54:44;;;;;;;6.87;3.37;;;5.60;94.40;;;;;;20838082;28;20583;-64
